createdAt,value
2017-08-29T00:01:51.606Z,99.30
2017-08-29T00:04:19.909Z,99.30
2017-08-29T00:06:48.236Z,99.50
2017-08-29T00:09:16.568Z,99.60
2017-08-29T00:11:44.855Z,99.60
2017-08-29T00:14:13.176Z,99.70
2017-08-29T00:16:41.542Z,99.60
2017-08-29T00:19:09.833Z,99.50
2017-08-29T00:21:38.155Z,99.60
2017-08-29T00:24:06.442Z,99.60
2017-08-29T00:26:34.789Z,99.60
2017-08-29T00:29:03.086Z,99.90
2017-08-29T00:31:31.430Z,99.90
2017-08-29T00:33:59.720Z,99.90
2017-08-29T00:36:28.043Z,99.90
2017-08-29T00:38:56.376Z,99.80
2017-08-29T00:41:24.745Z,99.90
2017-08-29T00:43:53.037Z,99.90
2017-08-29T00:46:21.353Z,99.40
2017-08-29T00:48:49.696Z,99.70
2017-08-29T00:51:17.980Z,99.10
2017-08-29T00:53:46.268Z,99.10
2017-08-29T00:56:14.678Z,99.20
2017-08-29T00:58:43.670Z,99.10
2017-08-29T01:01:11.974Z,99.40
2017-08-29T01:03:40.286Z,99.70
2017-08-29T01:06:08.575Z,99.90
2017-08-29T01:08:36.887Z,99.80
2017-08-29T01:11:05.189Z,99.60
2017-08-29T01:13:33.477Z,99.90
2017-08-29T01:16:01.788Z,99.90
2017-08-29T01:18:30.081Z,99.90
2017-08-29T01:20:58.420Z,99.70
2017-08-29T01:23:26.699Z,99.80
2017-08-29T01:25:55.017Z,99.80
2017-08-29T01:28:23.328Z,99.60
2017-08-29T01:30:51.635Z,99.30
2017-08-29T01:33:19.924Z,98.80
2017-08-29T01:35:48.203Z,98.90
2017-08-29T01:38:16.702Z,99.10
2017-08-29T01:40:44.982Z,99.50
2017-08-29T01:43:13.285Z,99.60
2017-08-29T01:45:41.599Z,99.50
2017-08-29T01:48:09.892Z,99.50
2017-08-29T01:50:38.261Z,99.20
2017-08-29T01:53:06.569Z,99.30
2017-08-29T01:55:34.884Z,99.30
2017-08-29T01:58:03.190Z,99.40
2017-08-29T02:00:31.503Z,99.10
2017-08-29T02:02:59.807Z,99.40
2017-08-29T02:05:28.075Z,99.40
2017-08-29T02:07:56.396Z,99.60
2017-08-29T02:10:24.801Z,99.30
2017-08-29T02:12:53.099Z,99.30
2017-08-29T02:15:21.386Z,98.90
2017-08-29T02:17:49.740Z,99.10
2017-08-29T02:20:18.056Z,99.50
2017-08-29T02:22:46.381Z,99.50
2017-08-29T02:25:14.708Z,99.70
2017-08-29T02:27:43.037Z,99.90
2017-08-29T02:30:11.319Z,99.90
2017-08-29T02:32:39.635Z,99.80
2017-08-29T02:35:07.919Z,99.50
2017-08-29T02:37:36.209Z,99.20
2017-08-29T02:40:04.546Z,99.60
2017-08-29T02:42:32.846Z,99.50
2017-08-29T02:45:01.166Z,99.10
2017-08-29T02:47:29.492Z,99.40
2017-08-29T02:49:57.781Z,99.50
2017-08-29T02:52:26.194Z,99.90
2017-08-29T02:54:54.586Z,99.70
2017-08-29T02:57:22.976Z,99.60
2017-08-29T02:59:51.272Z,99.90
2017-08-29T03:02:19.669Z,99.20
2017-08-29T03:04:47.997Z,99.10
2017-08-29T03:07:16.335Z,98.70
2017-08-29T03:09:44.628Z,99.20
2017-08-29T03:12:12.935Z,99.10
2017-08-29T03:14:41.228Z,99.10
2017-08-29T03:17:09.531Z,99.10
2017-08-29T03:19:37.816Z,99.40
2017-08-29T03:22:06.423Z,99.40
2017-08-29T03:24:34.789Z,99.50
2017-08-29T03:27:03.850Z,99.80
2017-08-29T03:29:32.159Z,99.70
2017-08-29T03:32:00.548Z,99.30
2017-08-29T03:34:28.873Z,99.00
2017-08-29T03:36:57.168Z,98.90
2017-08-29T03:39:25.518Z,99.00
2017-08-29T03:41:53.820Z,99.20
2017-08-29T03:44:22.115Z,99.50
2017-08-29T03:46:50.440Z,99.60
2017-08-29T03:49:18.718Z,99.90
2017-08-29T03:51:47.000Z,99.60
2017-08-29T03:54:15.311Z,99.70
2017-08-29T03:56:43.595Z,99.50
2017-08-29T03:59:11.932Z,99.20
2017-08-29T04:01:40.246Z,98.90
2017-08-29T04:04:08.568Z,99.00
2017-08-29T04:06:36.843Z,99.00
2017-08-29T04:09:05.169Z,99.10
2017-08-29T04:11:33.576Z,99.20
2017-08-29T04:14:01.899Z,99.30
2017-08-29T04:16:30.951Z,99.60
2017-08-29T04:18:59.235Z,99.50
2017-08-29T04:21:27.552Z,99.60
2017-08-29T04:23:55.854Z,99.90
2017-08-29T04:26:24.244Z,99.90
2017-08-29T04:28:52.562Z,99.90
2017-08-29T04:31:20.869Z,99.70
2017-08-29T04:33:49.174Z,99.70
2017-08-29T04:36:17.478Z,99.40
2017-08-29T04:38:45.793Z,99.30
2017-08-29T04:41:14.102Z,99.30
2017-08-29T04:43:42.391Z,99.60
2017-08-29T04:46:10.739Z,99.50
2017-08-29T04:48:39.079Z,99.10
2017-08-29T04:51:07.772Z,99.20
2017-08-29T04:53:36.117Z,99.20
2017-08-29T04:56:04.785Z,99.40
2017-08-29T04:58:33.223Z,99.40
2017-08-29T05:01:01.539Z,99.20
2017-08-29T05:03:29.891Z,99.20
2017-08-29T05:05:58.225Z,98.80
2017-08-29T05:08:26.516Z,99.00
2017-08-29T05:10:54.873Z,99.30
2017-08-29T05:13:23.196Z,99.70
2017-08-29T05:15:51.554Z,99.90
2017-08-29T05:18:19.864Z,99.90
2017-08-29T05:20:48.231Z,99.90
2017-08-29T05:23:16.618Z,99.90
2017-08-29T05:25:44.923Z,99.60
2017-08-29T05:28:13.990Z,99.40
2017-08-29T05:30:42.408Z,99.20
2017-08-29T05:33:11.471Z,98.90
2017-08-29T05:35:39.764Z,98.90
2017-08-29T05:38:08.092Z,99.20
2017-08-29T05:40:36.406Z,99.20
2017-08-29T05:43:04.716Z,99.10
2017-08-29T05:45:33.155Z,99.10
2017-08-29T05:48:01.461Z,99.00
2017-08-29T05:50:29.853Z,98.90
2017-08-29T05:52:58.181Z,98.80
2017-08-29T05:55:48.632Z,98.80
2017-08-29T05:58:16.951Z,98.40
2017-08-29T06:00:45.269Z,98.10
2017-08-29T06:03:13.557Z,98.20
2017-08-29T06:05:41.848Z,97.90
2017-08-29T06:08:10.173Z,97.00
2017-08-29T06:10:38.524Z,96.50
2017-08-29T06:13:06.833Z,96.30
2017-08-29T06:15:35.155Z,96.00
2017-08-29T06:18:03.557Z,96.30
2017-08-29T06:20:31.839Z,96.00
2017-08-29T06:23:00.169Z,95.50
2017-08-29T06:25:28.532Z,95.40
2017-08-29T06:27:56.880Z,95.00
2017-08-29T06:30:25.172Z,95.30
2017-08-29T06:32:53.587Z,94.50
2017-08-29T06:35:22.543Z,95.10
2017-08-29T06:37:50.845Z,94.60
2017-08-29T06:40:19.177Z,94.80
2017-08-29T06:42:47.563Z,94.40
2017-08-29T06:45:15.907Z,94.10
2017-08-29T06:47:44.493Z,93.70
2017-08-29T06:50:12.882Z,93.50
2017-08-29T06:52:41.979Z,93.30
2017-08-29T06:55:10.278Z,93.30
2017-08-29T06:57:38.624Z,93.60
2017-08-29T07:00:06.912Z,92.60
2017-08-29T07:02:35.252Z,91.40
2017-08-29T07:05:03.543Z,91.80
2017-08-29T07:07:31.883Z,91.30
2017-08-29T07:10:00.417Z,90.90
2017-08-29T07:12:28.737Z,90.90
2017-08-29T07:14:57.149Z,90.80
2017-08-29T07:17:25.437Z,90.40
2017-08-29T07:19:54.522Z,89.30
2017-08-29T07:22:22.849Z,89.20
2017-08-29T07:24:51.137Z,87.70
2017-08-29T07:27:19.479Z,88.90
2017-08-29T07:29:47.784Z,88.50
2017-08-29T07:32:16.094Z,87.60
2017-08-29T07:34:44.419Z,87.50
2017-08-29T07:37:12.735Z,85.30
2017-08-29T07:39:41.067Z,85.90
2017-08-29T07:42:09.388Z,84.10
2017-08-29T07:44:38.570Z,84.30
2017-08-29T07:47:06.890Z,84.30
2017-08-29T07:49:35.181Z,82.30
2017-08-29T07:52:04.264Z,80.10
2017-08-29T07:54:32.551Z,80.00
2017-08-29T07:57:00.831Z,79.80
2017-08-29T07:59:29.241Z,79.50
2017-08-29T08:01:57.628Z,79.60
2017-08-29T08:04:26.015Z,79.20
2017-08-29T08:06:54.412Z,79.20
2017-08-29T08:09:22.735Z,77.40
2017-08-29T08:11:51.079Z,75.80
2017-08-29T08:14:19.406Z,77.60
2017-08-29T08:16:47.715Z,75.10
2017-08-29T08:19:16.076Z,73.50
2017-08-29T08:21:44.448Z,74.50
2017-08-29T08:24:12.831Z,74.90
2017-08-29T08:26:41.121Z,73.40
2017-08-29T08:29:09.403Z,73.10
2017-08-29T08:31:37.810Z,71.30
2017-08-29T08:34:06.232Z,72.80
2017-08-29T08:36:34.515Z,70.80
2017-08-29T08:39:03.581Z,68.40
2017-08-29T08:41:31.995Z,68.20
2017-08-29T08:44:00.284Z,68.60
2017-08-29T08:46:28.625Z,66.90
2017-08-29T08:48:56.978Z,66.90
2017-08-29T08:51:25.309Z,65.00
2017-08-29T08:53:53.614Z,65.60
2017-08-29T08:56:21.910Z,66.70
2017-08-29T08:58:50.239Z,66.70
2017-08-29T09:01:18.611Z,66.30
2017-08-29T09:03:46.928Z,65.30
2017-08-29T09:06:15.273Z,64.50
2017-08-29T09:08:43.600Z,65.00
2017-08-29T09:11:11.922Z,65.20
2017-08-29T09:13:40.300Z,64.80
2017-08-29T09:16:08.621Z,63.20
2017-08-29T09:18:36.920Z,62.00
2017-08-29T09:21:05.256Z,61.00
2017-08-29T09:23:33.595Z,61.20
2017-08-29T09:26:01.893Z,61.90
2017-08-29T09:28:30.182Z,61.20
2017-08-29T09:30:58.510Z,60.60
2017-08-29T09:36:01.434Z,59.90
2017-08-29T09:38:29.787Z,59.70
2017-08-29T09:40:58.195Z,59.00
2017-08-29T09:43:26.525Z,59.00
2017-08-29T09:45:54.888Z,57.80
2017-08-29T09:48:23.208Z,58.80
2017-08-29T09:50:51.516Z,58.80
2017-08-29T09:53:19.852Z,60.10
2017-08-29T09:55:48.219Z,61.50
2017-08-29T09:58:16.523Z,58.80
2017-08-29T10:00:44.847Z,61.00
2017-08-29T10:03:13.152Z,60.40
2017-08-29T10:05:41.643Z,59.00
2017-08-29T10:08:09.978Z,59.40
2017-08-29T10:10:38.269Z,60.10
2017-08-29T10:13:06.600Z,60.60
2017-08-29T10:15:35.211Z,59.70
2017-08-29T10:18:03.569Z,58.10
2017-08-29T10:20:31.865Z,57.40
2017-08-29T10:23:00.187Z,57.20
2017-08-29T10:25:28.577Z,57.10
2017-08-29T10:27:56.929Z,56.60
2017-08-29T10:30:25.251Z,55.50
2017-08-29T10:32:53.541Z,56.70
2017-08-29T10:35:21.911Z,56.90
2017-08-29T10:37:50.227Z,56.50
2017-08-29T10:40:18.556Z,57.40
2017-08-29T10:42:46.892Z,55.40
2017-08-29T10:45:16.135Z,55.60
2017-08-29T10:47:44.440Z,55.70
2017-08-29T10:50:12.773Z,57.00
2017-08-29T10:52:41.112Z,54.90
2017-08-29T10:55:09.439Z,55.10
2017-08-29T10:57:38.550Z,56.40
2017-08-29T11:00:06.900Z,56.30
2017-08-29T11:02:35.284Z,53.90
2017-08-29T11:05:03.657Z,55.80
2017-08-29T11:07:31.958Z,54.10
2017-08-29T11:10:00.310Z,56.20
2017-08-29T11:12:28.662Z,53.60
2017-08-29T11:14:57.753Z,53.50
2017-08-29T11:17:26.085Z,53.50
2017-08-29T11:19:54.405Z,52.80
2017-08-29T11:22:22.750Z,53.00
2017-08-29T11:24:51.159Z,53.10
2017-08-29T11:27:19.517Z,53.00
2017-08-29T11:29:47.898Z,53.10
2017-08-29T11:32:16.261Z,53.80
2017-08-29T11:34:44.722Z,55.10
2017-08-29T11:37:13.071Z,52.50
2017-08-29T11:39:41.389Z,53.10
2017-08-29T11:42:09.727Z,52.40
2017-08-29T11:44:38.040Z,54.00
2017-08-29T11:47:06.382Z,53.60
2017-08-29T11:49:34.740Z,52.10
2017-08-29T11:52:03.065Z,53.40
2017-08-29T11:54:31.384Z,53.70
2017-08-29T11:56:59.716Z,55.10
2017-08-29T11:59:28.053Z,52.40
2017-08-29T12:01:56.340Z,53.50
2017-08-29T12:04:24.664Z,52.30
2017-08-29T12:06:52.996Z,53.10
2017-08-29T12:09:22.061Z,54.70
2017-08-29T12:11:50.381Z,54.60
2017-08-29T12:14:18.713Z,53.10
2017-08-29T12:16:47.040Z,53.20
2017-08-29T12:19:15.340Z,53.00
2017-08-29T12:21:43.741Z,52.80
2017-08-29T12:24:12.061Z,51.70
2017-08-29T12:26:40.425Z,53.40
2017-08-29T12:29:08.715Z,51.50
2017-08-29T12:31:37.075Z,52.30
2017-08-29T12:34:05.403Z,52.50
2017-08-29T12:36:34.565Z,52.20
2017-08-29T12:39:02.898Z,52.20
2017-08-29T12:41:31.197Z,52.20
2017-08-29T12:43:59.552Z,53.10
2017-08-29T12:46:27.855Z,52.20
2017-08-29T12:48:56.206Z,50.90
2017-08-29T12:51:24.556Z,50.60
2017-08-29T12:53:52.904Z,52.20
2017-08-29T12:56:21.229Z,51.10
2017-08-29T12:58:49.542Z,51.70
2017-08-29T13:01:17.920Z,52.40
2017-08-29T13:03:46.285Z,55.20
2017-08-29T13:06:14.626Z,53.50
2017-08-29T13:08:42.953Z,51.70
2017-08-29T13:11:11.276Z,55.10
2017-08-29T13:13:39.618Z,50.00
2017-08-29T13:16:07.992Z,51.20
2017-08-29T13:18:36.340Z,51.40
2017-08-29T13:21:04.661Z,51.80
2017-08-29T13:23:33.072Z,52.70
2017-08-29T13:26:01.427Z,51.60
2017-08-29T13:28:30.477Z,49.50
2017-08-29T13:30:58.989Z,49.50
2017-08-29T13:33:27.352Z,51.10
2017-08-29T13:35:55.650Z,50.80
2017-08-29T13:38:24.026Z,51.30
2017-08-29T13:40:52.303Z,50.10
2017-08-29T13:43:20.637Z,49.50
2017-08-29T13:45:48.966Z,51.20
2017-08-29T13:48:18.088Z,49.50
2017-08-29T13:50:46.432Z,49.40
2017-08-29T13:53:14.730Z,50.40
2017-08-29T13:55:43.230Z,50.40
2017-08-29T13:58:11.521Z,51.00
2017-08-29T14:00:39.848Z,50.40
2017-08-29T14:03:08.196Z,50.00
2017-08-29T14:05:36.509Z,51.20
2017-08-29T14:08:04.873Z,51.60
2017-08-29T14:10:33.160Z,50.90
2017-08-29T14:13:01.565Z,50.90
2017-08-29T14:15:29.880Z,50.70
2017-08-29T14:17:58.296Z,52.20
2017-08-29T14:20:26.677Z,51.90
2017-08-29T14:22:54.988Z,50.80
2017-08-29T14:25:23.348Z,51.10
2017-08-29T14:27:51.667Z,50.70
2017-08-29T14:30:19.969Z,49.40
2017-08-29T14:32:48.313Z,49.70
2017-08-29T14:35:16.673Z,50.30
2017-08-29T14:37:45.000Z,48.30
2017-08-29T14:40:13.297Z,50.90
2017-08-29T14:42:41.589Z,49.20
2017-08-29T14:45:09.923Z,48.90
2017-08-29T14:47:50.209Z,48.90
2017-08-29T14:50:18.613Z,49.00
2017-08-29T14:52:46.925Z,49.70
2017-08-29T14:55:15.267Z,48.00
2017-08-29T14:57:43.593Z,48.00
2017-08-29T15:00:11.972Z,48.30
2017-08-29T15:02:40.310Z,47.90
2017-08-29T15:05:08.663Z,48.20
2017-08-29T15:07:36.994Z,48.00
2017-08-29T15:10:05.321Z,47.50
2017-08-29T15:12:33.656Z,48.70
2017-08-29T15:15:01.955Z,47.90
2017-08-29T15:17:30.375Z,48.30
2017-08-29T15:19:58.693Z,48.90
2017-08-29T15:22:27.001Z,49.10
2017-08-29T15:24:55.457Z,48.50
2017-08-29T15:27:23.812Z,48.00
2017-08-29T15:29:52.097Z,46.70
2017-08-29T15:32:20.425Z,44.50
2017-08-29T15:34:48.742Z,42.30
2017-08-29T15:37:17.100Z,39.20
2017-08-29T15:39:45.415Z,37.50
2017-08-29T15:42:13.807Z,35.00
2017-08-29T15:44:42.188Z,32.80
2017-08-29T15:47:11.289Z,30.50
2017-08-29T15:49:39.682Z,30.50
2017-08-29T15:52:08.002Z,30.80
2017-08-29T15:54:36.361Z,29.20
2017-08-29T15:57:04.698Z,29.40
2017-08-29T15:59:33.784Z,27.50
2017-08-29T16:02:02.145Z,27.50
2017-08-29T16:04:30.447Z,26.70
2017-08-29T16:06:58.769Z,26.60
2017-08-29T16:09:27.047Z,26.50
2017-08-29T16:11:55.477Z,27.00
2017-08-29T16:14:23.803Z,28.00
2017-08-29T16:16:52.152Z,28.80
2017-08-29T16:19:20.440Z,28.70
2017-08-29T16:21:48.785Z,28.10
2017-08-29T16:24:17.988Z,27.70
2017-08-29T16:26:46.348Z,27.50
2017-08-29T16:29:14.640Z,27.30
2017-08-29T16:31:42.976Z,26.90
2017-08-29T16:34:11.337Z,26.80
2017-08-29T16:36:39.633Z,27.20
2017-08-29T16:39:07.931Z,26.90
2017-08-29T16:41:36.309Z,25.90
2017-08-29T16:44:04.665Z,27.10
2017-08-29T16:46:33.377Z,28.10
2017-08-29T16:49:01.703Z,31.40
2017-08-29T16:51:30.061Z,33.30
2017-08-29T16:53:58.419Z,36.90
2017-08-29T16:56:26.750Z,38.80
2017-08-29T16:58:55.098Z,42.50
2017-08-29T17:01:23.426Z,43.10
2017-08-29T17:03:51.734Z,43.70
2017-08-29T17:06:20.108Z,45.90
2017-08-29T17:08:48.391Z,47.30
2017-08-29T17:11:16.684Z,48.00
2017-08-29T17:13:45.037Z,49.20
2017-08-29T17:16:13.333Z,50.90
2017-08-29T17:18:41.664Z,52.10
2017-08-29T17:21:10.775Z,53.70
2017-08-29T17:23:39.128Z,53.60
2017-08-29T17:26:07.517Z,55.20
2017-08-29T17:28:35.803Z,55.50
2017-08-29T17:31:04.127Z,56.20
2017-08-29T17:33:32.516Z,56.80
2017-08-29T17:36:00.835Z,58.00
2017-08-29T17:38:29.196Z,60.50
2017-08-29T17:40:57.587Z,63.40
2017-08-29T17:43:25.921Z,66.80
2017-08-29T17:45:54.282Z,69.00
2017-08-29T17:48:22.559Z,69.70
2017-08-29T17:50:51.668Z,71.70
2017-08-29T17:53:19.947Z,71.70
2017-08-29T17:55:48.282Z,72.90
2017-08-29T17:58:16.593Z,74.20
2017-08-29T18:00:45.001Z,75.70
2017-08-29T18:03:13.329Z,76.10
2017-08-29T18:05:41.717Z,77.00
2017-08-29T18:08:10.032Z,77.30
2017-08-29T18:10:38.484Z,78.40
2017-08-29T18:13:06.801Z,79.00
2017-08-29T18:15:35.196Z,79.20
2017-08-29T18:18:03.507Z,79.30
2017-08-29T18:20:31.795Z,80.30
2017-08-29T18:23:00.084Z,80.90
2017-08-29T18:25:28.411Z,81.80
2017-08-29T18:27:56.736Z,83.40
2017-08-29T18:30:25.056Z,84.20
2017-08-29T18:32:53.334Z,85.00
2017-08-29T18:35:21.658Z,86.10
2017-08-29T18:37:49.951Z,87.80
2017-08-29T18:40:18.272Z,88.70
2017-08-29T18:42:46.560Z,89.30
2017-08-29T18:45:15.118Z,89.90
2017-08-29T18:47:43.435Z,90.60
2017-08-29T18:50:11.764Z,91.00
2017-08-29T18:52:40.048Z,91.20
2017-08-29T18:55:08.372Z,91.50
2017-08-29T18:57:36.673Z,91.80
2017-08-29T19:00:04.977Z,92.20
2017-08-29T19:02:33.292Z,92.50
2017-08-29T19:05:01.620Z,92.80
2017-08-29T19:07:29.940Z,93.10
2017-08-29T19:09:58.224Z,93.60
2017-08-29T19:12:26.544Z,93.80
2017-08-29T19:14:54.832Z,94.20
2017-08-29T19:17:23.158Z,94.70
2017-08-29T19:19:51.446Z,95.70
2017-08-29T19:22:19.744Z,96.40
2017-08-29T19:24:48.082Z,96.30
2017-08-29T19:27:16.372Z,96.80
2017-08-29T19:29:44.686Z,97.10
2017-08-29T19:32:13.041Z,97.20
2017-08-29T19:34:41.323Z,97.20
2017-08-29T19:37:09.645Z,97.10
2017-08-29T19:39:37.935Z,97.30
2017-08-29T19:42:06.321Z,96.20
2017-08-29T19:44:34.621Z,96.20
2017-08-29T19:47:02.915Z,96.10
2017-08-29T19:49:31.227Z,96.20
2017-08-29T19:51:59.524Z,96.20
2017-08-29T19:54:27.847Z,95.90
2017-08-29T19:56:56.135Z,96.00
2017-08-29T19:59:24.436Z,96.10
2017-08-29T20:01:52.749Z,96.10
2017-08-29T20:04:21.044Z,96.10
2017-08-29T20:06:49.365Z,96.20
2017-08-29T20:09:17.657Z,96.30
2017-08-29T20:11:45.936Z,96.20
2017-08-29T20:14:14.270Z,96.00
2017-08-29T20:16:42.598Z,96.10
2017-08-29T20:19:10.907Z,96.10
2017-08-29T20:21:39.240Z,96.20
2017-08-29T20:24:07.674Z,96.50
2017-08-29T20:26:35.993Z,96.50
2017-08-29T20:29:04.324Z,96.50
2017-08-29T20:31:32.660Z,96.70
2017-08-29T20:34:00.997Z,96.50
2017-08-29T20:36:29.315Z,96.30
2017-08-29T20:38:58.405Z,96.50
2017-08-29T20:41:26.781Z,96.50
2017-08-29T20:43:55.180Z,96.60
2017-08-29T20:46:23.492Z,96.60
2017-08-29T20:48:52.576Z,96.50
2017-08-29T20:51:21.678Z,96.70
2017-08-29T20:53:49.995Z,96.70
2017-08-29T20:56:18.318Z,96.50
2017-08-29T20:58:46.633Z,96.60
2017-08-29T21:01:14.956Z,96.60
2017-08-29T21:03:43.391Z,96.80
2017-08-29T21:06:11.671Z,96.60
2017-08-29T21:08:40.036Z,96.70
2017-08-29T21:11:09.087Z,96.60
2017-08-29T21:13:37.488Z,96.60
2017-08-29T21:16:05.785Z,96.60
2017-08-29T21:18:34.080Z,96.70
2017-08-29T21:21:02.399Z,96.70
2017-08-29T21:23:31.484Z,96.90
2017-08-29T21:25:59.818Z,96.50
2017-08-29T21:28:28.142Z,96.70
2017-08-29T21:30:56.473Z,96.60
2017-08-29T21:33:24.765Z,96.60
2017-08-29T21:35:53.084Z,96.50
2017-08-29T21:38:21.414Z,96.50
2017-08-29T21:40:49.719Z,96.40
2017-08-29T21:43:18.061Z,96.20
2017-08-29T21:45:46.358Z,96.40
2017-08-29T21:48:14.652Z,96.60
2017-08-29T21:50:42.972Z,96.40
2017-08-29T21:53:11.252Z,96.50
2017-08-29T21:55:39.571Z,96.60
2017-08-29T21:58:08.621Z,96.30
2017-08-29T22:00:36.935Z,96.30
2017-08-29T22:03:05.220Z,96.10
2017-08-29T22:05:33.576Z,95.90
2017-08-29T22:08:01.859Z,95.90
2017-08-29T22:10:30.148Z,95.70
2017-08-29T22:12:58.489Z,95.60
2017-08-29T22:15:26.775Z,95.70
2017-08-29T22:17:55.108Z,95.70
2017-08-29T22:20:23.459Z,95.30
2017-08-29T22:22:51.776Z,94.60
2017-08-29T22:25:20.067Z,94.80
2017-08-29T22:27:48.376Z,95.20
2017-08-29T22:30:16.670Z,95.00
2017-08-29T22:32:44.963Z,95.00
2017-08-29T22:35:13.289Z,95.00
2017-08-29T22:37:41.580Z,94.60
2017-08-29T22:40:09.897Z,94.60
2017-08-29T22:42:38.177Z,94.20
2017-08-29T22:45:06.503Z,94.50
2017-08-29T22:47:34.806Z,94.40
2017-08-29T22:50:03.122Z,94.40
2017-08-29T22:52:31.415Z,94.60
2017-08-29T22:54:59.704Z,94.40
2017-08-29T22:57:28.028Z,94.10
2017-08-29T22:59:56.303Z,94.30
2017-08-29T23:02:24.582Z,94.20
2017-08-29T23:04:52.904Z,94.40
2017-08-29T23:07:21.193Z,94.30
2017-08-29T23:09:49.521Z,94.30
2017-08-29T23:12:17.808Z,94.10
2017-08-29T23:14:46.126Z,93.90
2017-08-29T23:17:14.451Z,93.70
2017-08-29T23:19:42.829Z,93.50
2017-08-29T23:22:11.107Z,93.60
2017-08-29T23:24:39.495Z,93.60
2017-08-29T23:27:07.885Z,93.40
2017-08-29T23:29:36.180Z,93.60
2017-08-29T23:32:04.505Z,93.60
2017-08-29T23:34:32.853Z,93.70
2017-08-29T23:37:01.145Z,93.50
2017-08-29T23:39:29.451Z,93.70
2017-08-29T23:41:57.743Z,93.40
2017-08-29T23:44:26.069Z,93.30
2017-08-29T23:46:54.481Z,93.10
2017-08-29T23:49:22.765Z,93.10
2017-08-29T23:51:51.169Z,93.30
2017-08-29T23:54:19.453Z,92.90
2017-08-29T23:56:47.742Z,93.10
2017-08-29T23:59:16.143Z,93.30
